sensor_id;sensor_type;location;lat;lon;timestamp;temperature;humidity
7016;DHT22;3548;48.402;9.990;2023-06-24T00:01:34;16.70;99.90
7016;DHT22;3548;48.402;9.990;2023-06-24T00:04:00;16.70;99.90
7016;DHT22;3548;48.402;9.990;2023-06-24T00:06:25;16.60;99.90
7016;DHT22;3548;48.402;9.990;2023-06-24T00:08:52;16.60;99.90
7016;DHT22;3548;48.402;9.990;2023-06-24T00:11:17;16.60;99.90
7016;DHT22;3548;48.402;9.990;2023-06-24T00:13:43;16.60;99.90
7016;DHT22;3548;48.402;9.990;2023-06-24T00:16:09;16.60;99.90
7016;DHT22;3548;48.402;9.990;2023-06-24T00:18:36;16.60;99.90
7016;DHT22;3548;48.402;9.990;2023-06-24T00:21:03;16.60;99.90
7016;DHT22;3548;48.402;9.990;2023-06-24T00:23:29;16.60;99.90
7016;DHT22;3548;48.402;9.990;2023-06-24T00:25:56;16.50;99.90
7016;DHT22;3548;48.402;9.990;2023-06-24T00:28:22;16.50;99.90
7016;DHT22;3548;48.402;9.990;2023-06-24T00:30:49;16.50;99.90
7016;DHT22;3548;48.402;9.990;2023-06-24T00:33:15;16.50;99.90
7016;DHT22;3548;48.402;9.990;2023-06-24T00:35:42;16.50;99.90
7016;DHT22;3548;48.402;9.990;2023-06-24T00:38:08;16.50;99.90
7016;DHT22;3548;48.402;9.990;2023-06-24T00:40:34;16.50;99.90
7016;DHT22;3548;48.402;9.990;2023-06-24T00:43:00;16.50;99.90
7016;DHT22;3548;48.402;9.990;2023-06-24T00:45:28;16.50;99.90
7016;DHT22;3548;48.402;9.990;2023-06-24T00:47:55;16.60;99.90
7016;DHT22;3548;48.402;9.990;2023-06-24T00:50:21;16.60;99.90
7016;DHT22;3548;48.402;9.990;2023-06-24T00:52:47;16.50;99.90
7016;DHT22;3548;48.402;9.990;2023-06-24T00:55:15;16.50;99.90
7016;DHT22;3548;48.402;9.990;2023-06-24T00:57:44;16.50;99.90
7016;DHT22;3548;48.402;9.990;2023-06-24T01:00:11;16.50;99.90
7016;DHT22;3548;48.402;9.990;2023-06-24T01:02:40;16.50;99.90
7016;DHT22;3548;48.402;9.990;2023-06-24T01:05:08;16.60;99.90
7016;DHT22;3548;48.402;9.990;2023-06-24T01:07:35;16.60;99.90
7016;DHT22;3548;48.402;9.990;2023-06-24T01:10:03;16.60;99.90
7016;DHT22;3548;48.402;9.990;2023-06-24T01:12:31;16.50;99.90
7016;DHT22;3548;48.402;9.990;2023-06-24T01:14:58;16.60;99.90
7016;DHT22;3548;48.402;9.990;2023-06-24T01:17:31;16.60;99.90
7016;DHT22;3548;48.402;9.990;2023-06-24T01:20:10;16.60;99.90
7016;DHT22;3548;48.402;9.990;2023-06-24T01:25:40;16.50;99.90
7016;DHT22;3548;48.402;9.990;2023-06-24T01:31:26;16.50;99.90
7016;DHT22;3548;48.402;9.990;2023-06-24T01:36:38;16.50;99.90
7016;DHT22;3548;48.402;9.990;2023-06-24T01:39:08;16.50;99.90
7016;DHT22;3548;48.402;9.990;2023-06-24T01:41:41;16.50;99.90
7016;DHT22;3548;48.402;9.990;2023-06-24T01:44:13;16.50;99.90
7016;DHT22;3548;48.402;9.990;2023-06-24T01:46:41;16.50;99.90
7016;DHT22;3548;48.402;9.990;2023-06-24T01:49:08;16.50;99.90
7016;DHT22;3548;48.402;9.990;2023-06-24T01:51:38;16.50;99.90
7016;DHT22;3548;48.402;9.990;2023-06-24T01:54:08;16.50;99.90
7016;DHT22;3548;48.402;9.990;2023-06-24T01:56:36;16.50;99.90
7016;DHT22;3548;48.402;9.990;2023-06-24T01:59:04;16.50;99.90
7016;DHT22;3548;48.402;9.990;2023-06-24T02:01:32;16.50;99.90
7016;DHT22;3548;48.402;9.990;2023-06-24T02:04:00;16.50;99.90
7016;DHT22;3548;48.402;9.990;2023-06-24T02:06:26;16.50;99.90
7016;DHT22;3548;48.402;9.990;2023-06-24T02:08:54;16.50;99.90
7016;DHT22;3548;48.402;9.990;2023-06-24T02:11:22;16.50;99.90
7016;DHT22;3548;48.402;9.990;2023-06-24T02:13:49;16.50;99.90
7016;DHT22;3548;48.402;9.990;2023-06-24T02:16:17;16.40;99.90
7016;DHT22;3548;48.402;9.990;2023-06-24T02:18:43;16.40;99.90
7016;DHT22;3548;48.402;9.990;2023-06-24T02:21:09;16.40;99.90
7016;DHT22;3548;48.402;9.990;2023-06-24T02:23:37;16.40;99.90
7016;DHT22;3548;48.402;9.990;2023-06-24T02:26:03;16.30;99.90
7016;DHT22;3548;48.402;9.990;2023-06-24T02:28:31;16.30;99.90
7016;DHT22;3548;48.402;9.990;2023-06-24T02:30:58;16.20;99.90
7016;DHT22;3548;48.402;9.990;2023-06-24T02:33:24;16.20;99.90
7016;DHT22;3548;48.402;9.990;2023-06-24T02:35:50;16.20;99.90
7016;DHT22;3548;48.402;9.990;2023-06-24T02:38:16;16.10;99.90
7016;DHT22;3548;48.402;9.990;2023-06-24T02:40:43;16.00;99.90
7016;DHT22;3548;48.402;9.990;2023-06-24T02:43:10;15.90;99.90
7016;DHT22;3548;48.402;9.990;2023-06-24T02:45:35;15.90;99.90
7016;DHT22;3548;48.402;9.990;2023-06-24T02:48:01;15.80;99.90
7016;DHT22;3548;48.402;9.990;2023-06-24T02:50:28;15.70;99.90
7016;DHT22;3548;48.402;9.990;2023-06-24T02:52:54;15.60;99.90
7016;DHT22;3548;48.402;9.990;2023-06-24T02:55:20;15.60;99.90
7016;DHT22;3548;48.402;9.990;2023-06-24T02:57:47;15.50;99.90
7016;DHT22;3548;48.402;9.990;2023-06-24T03:00:13;15.40;99.90
7016;DHT22;3548;48.402;9.990;2023-06-24T03:02:40;15.40;99.90
7016;DHT22;3548;48.402;9.990;2023-06-24T03:05:07;15.30;99.90
7016;DHT22;3548;48.402;9.990;2023-06-24T03:07:33;15.30;99.90
7016;DHT22;3548;48.402;9.990;2023-06-24T03:10:05;15.20;99.90
7016;DHT22;3548;48.402;9.990;2023-06-24T03:12:31;15.20;99.90
7016;DHT22;3548;48.402;9.990;2023-06-24T03:14:57;15.10;99.90
7016;DHT22;3548;48.402;9.990;2023-06-24T03:17:23;15.10;99.90
7016;DHT22;3548;48.402;9.990;2023-06-24T03:19:50;15.10;99.90
7016;DHT22;3548;48.402;9.990;2023-06-24T03:22:15;15.10;99.90
7016;DHT22;3548;48.402;9.990;2023-06-24T03:24:42;15.10;99.90
7016;DHT22;3548;48.402;9.990;2023-06-24T03:27:08;15.10;99.90
7016;DHT22;3548;48.402;9.990;2023-06-24T03:29:33;15.10;99.90
7016;DHT22;3548;48.402;9.990;2023-06-24T03:31:59;15.00;99.90
7016;DHT22;3548;48.402;9.990;2023-06-24T03:34:24;15.10;99.90
7016;DHT22;3548;48.402;9.990;2023-06-24T03:36:53;15.10;99.90
7016;DHT22;3548;48.402;9.990;2023-06-24T03:39:20;15.10;99.90
7016;DHT22;3548;48.402;9.990;2023-06-24T03:41:46;15.10;99.90
7016;DHT22;3548;48.402;9.990;2023-06-24T03:44:11;15.10;99.90
7016;DHT22;3548;48.402;9.990;2023-06-24T03:46:37;15.10;99.90
7016;DHT22;3548;48.402;9.990;2023-06-24T03:49:02;15.10;99.90
7016;DHT22;3548;48.402;9.990;2023-06-24T03:51:28;15.00;99.90
7016;DHT22;3548;48.402;9.990;2023-06-24T03:53:54;15.00;99.90
7016;DHT22;3548;48.402;9.990;2023-06-24T03:56:19;15.10;99.90
7016;DHT22;3548;48.402;9.990;2023-06-24T03:58:45;15.10;99.90
7016;DHT22;3548;48.402;9.990;2023-06-24T04:01:10;15.10;99.90
7016;DHT22;3548;48.402;9.990;2023-06-24T04:03:36;15.30;99.90
7016;DHT22;3548;48.402;9.990;2023-06-24T04:06:01;15.60;99.90
7016;DHT22;3548;48.402;9.990;2023-06-24T04:08:27;16.10;99.90
7016;DHT22;3548;48.402;9.990;2023-06-24T04:10:59;16.50;99.90
7016;DHT22;3548;48.402;9.990;2023-06-24T04:13:32;16.90;99.90
7016;DHT22;3548;48.402;9.990;2023-06-24T04:15:57;17.30;99.90
7016;DHT22;3548;48.402;9.990;2023-06-24T04:18:23;17.60;99.90
7016;DHT22;3548;48.402;9.990;2023-06-24T04:20:48;17.60;99.90
7016;DHT22;3548;48.402;9.990;2023-06-24T04:23:14;17.70;99.90
7016;DHT22;3548;48.402;9.990;2023-06-24T04:25:41;17.60;99.90
7016;DHT22;3548;48.402;9.990;2023-06-24T04:28:06;17.50;99.90
7016;DHT22;3548;48.402;9.990;2023-06-24T04:30:32;17.50;99.90
7016;DHT22;3548;48.402;9.990;2023-06-24T04:32:58;17.70;99.90
7016;DHT22;3548;48.402;9.990;2023-06-24T04:35:24;17.80;99.90
7016;DHT22;3548;48.402;9.990;2023-06-24T04:37:50;17.70;99.90
7016;DHT22;3548;48.402;9.990;2023-06-24T04:40:17;17.50;99.90
7016;DHT22;3548;48.402;9.990;2023-06-24T04:42:44;17.40;99.90
7016;DHT22;3548;48.402;9.990;2023-06-24T04:45:10;17.30;99.90
7016;DHT22;3548;48.402;9.990;2023-06-24T04:47:35;17.30;99.90
7016;DHT22;3548;48.402;9.990;2023-06-24T04:50:01;17.30;99.90
7016;DHT22;3548;48.402;9.990;2023-06-24T04:52:27;17.30;99.90
7016;DHT22;3548;48.402;9.990;2023-06-24T04:54:52;17.30;99.90
7016;DHT22;3548;48.402;9.990;2023-06-24T04:57:29;17.20;99.90
7016;DHT22;3548;48.402;9.990;2023-06-24T04:59:55;17.20;99.90
7016;DHT22;3548;48.402;9.990;2023-06-24T05:02:21;17.20;99.90
7016;DHT22;3548;48.402;9.990;2023-06-24T05:04:47;17.20;99.90
7016;DHT22;3548;48.402;9.990;2023-06-24T05:07:12;17.30;99.90
7016;DHT22;3548;48.402;9.990;2023-06-24T05:09:38;17.40;99.90
7016;DHT22;3548;48.402;9.990;2023-06-24T05:12:07;17.60;99.90
7016;DHT22;3548;48.402;9.990;2023-06-24T05:14:36;17.70;99.90
7016;DHT22;3548;48.402;9.990;2023-06-24T05:17:05;17.90;99.90
7016;DHT22;3548;48.402;9.990;2023-06-24T05:19:31;18.10;99.90
7016;DHT22;3548;48.402;9.990;2023-06-24T05:21:57;18.30;99.90
7016;DHT22;3548;48.402;9.990;2023-06-24T05:24:22;18.40;99.90
7016;DHT22;3548;48.402;9.990;2023-06-24T05:26:49;18.60;99.90
7016;DHT22;3548;48.402;9.990;2023-06-24T05:29:15;18.80;99.90
7016;DHT22;3548;48.402;9.990;2023-06-24T05:31:41;18.90;99.90
7016;DHT22;3548;48.402;9.990;2023-06-24T05:34:06;19.00;99.90
7016;DHT22;3548;48.402;9.990;2023-06-24T05:36:33;19.10;99.90
7016;DHT22;3548;48.402;9.990;2023-06-24T05:38:58;19.10;99.90
7016;DHT22;3548;48.402;9.990;2023-06-24T05:41:24;19.20;99.90
7016;DHT22;3548;48.402;9.990;2023-06-24T05:43:58;19.20;99.90
7016;DHT22;3548;48.402;9.990;2023-06-24T05:46:26;19.20;99.90
7016;DHT22;3548;48.402;9.990;2023-06-24T05:48:51;19.10;99.90
7016;DHT22;3548;48.402;9.990;2023-06-24T05:51:17;19.10;99.90
7016;DHT22;3548;48.402;9.990;2023-06-24T05:53:42;19.00;99.90
7016;DHT22;3548;48.402;9.990;2023-06-24T05:56:08;19.00;99.90
7016;DHT22;3548;48.402;9.990;2023-06-24T05:58:34;19.10;99.90
7016;DHT22;3548;48.402;9.990;2023-06-24T06:00:59;19.10;99.90
7016;DHT22;3548;48.402;9.990;2023-06-24T06:03:26;19.20;99.90
7016;DHT22;3548;48.402;9.990;2023-06-24T06:05:52;19.20;99.90
7016;DHT22;3548;48.402;9.990;2023-06-24T06:08:17;19.30;99.90
7016;DHT22;3548;48.402;9.990;2023-06-24T06:10:43;19.30;99.90
7016;DHT22;3548;48.402;9.990;2023-06-24T06:13:08;19.40;99.90
7016;DHT22;3548;48.402;9.990;2023-06-24T06:15:34;19.40;99.90
7016;DHT22;3548;48.402;9.990;2023-06-24T06:17:59;19.50;99.90
7016;DHT22;3548;48.402;9.990;2023-06-24T06:20:25;19.50;99.90
7016;DHT22;3548;48.402;9.990;2023-06-24T06:22:51;19.60;99.90
7016;DHT22;3548;48.402;9.990;2023-06-24T06:25:16;19.60;99.90
7016;DHT22;3548;48.402;9.990;2023-06-24T06:27:42;19.70;99.90
7016;DHT22;3548;48.402;9.990;2023-06-24T06:30:08;19.70;99.90
7016;DHT22;3548;48.402;9.990;2023-06-24T06:32:33;19.80;99.90
7016;DHT22;3548;48.402;9.990;2023-06-24T06:34:59;19.80;99.90
7016;DHT22;3548;48.402;9.990;2023-06-24T06:37:24;19.80;99.90
7016;DHT22;3548;48.402;9.990;2023-06-24T06:39:50;19.80;99.90
7016;DHT22;3548;48.402;9.990;2023-06-24T06:42:16;19.80;99.90
7016;DHT22;3548;48.402;9.990;2023-06-24T06:44:41;19.90;99.90
7016;DHT22;3548;48.402;9.990;2023-06-24T06:47:07;20.10;99.90
7016;DHT22;3548;48.402;9.990;2023-06-24T06:49:32;20.20;99.90
7016;DHT22;3548;48.402;9.990;2023-06-24T06:51:58;20.20;99.90
7016;DHT22;3548;48.402;9.990;2023-06-24T06:54:23;20.30;99.90
7016;DHT22;3548;48.402;9.990;2023-06-24T06:56:49;20.40;99.90
7016;DHT22;3548;48.402;9.990;2023-06-24T06:59:14;20.40;99.90
7016;DHT22;3548;48.402;9.990;2023-06-24T07:01:40;20.50;99.90
7016;DHT22;3548;48.402;9.990;2023-06-24T07:04:05;20.60;99.90
7016;DHT22;3548;48.402;9.990;2023-06-24T07:06:31;20.80;99.90
7016;DHT22;3548;48.402;9.990;2023-06-24T07:08:58;21.00;99.90
7016;DHT22;3548;48.402;9.990;2023-06-24T07:11:24;21.10;99.50
7016;DHT22;3548;48.402;9.990;2023-06-24T07:13:50;21.10;99.70
7016;DHT22;3548;48.402;9.990;2023-06-24T07:16:17;21.30;99.50
7016;DHT22;3548;48.402;9.990;2023-06-24T07:18:42;21.40;98.40
7016;DHT22;3548;48.402;9.990;2023-06-24T07:21:08;21.40;98.00
7016;DHT22;3548;48.402;9.990;2023-06-24T07:23:33;21.40;98.20
7016;DHT22;3548;48.402;9.990;2023-06-24T07:25:59;21.50;98.00
7016;DHT22;3548;48.402;9.990;2023-06-24T07:28:24;21.60;97.30
7016;DHT22;3548;48.402;9.990;2023-06-24T07:30:50;21.60;97.20
7016;DHT22;3548;48.402;9.990;2023-06-24T07:33:15;21.70;97.00
7016;DHT22;3548;48.402;9.990;2023-06-24T07:35:41;21.80;96.50
7016;DHT22;3548;48.402;9.990;2023-06-24T07:38:07;21.70;96.00
7016;DHT22;3548;48.402;9.990;2023-06-24T07:40:32;21.70;95.60
7016;DHT22;3548;48.402;9.990;2023-06-24T07:42:58;21.80;95.60
7016;DHT22;3548;48.402;9.990;2023-06-24T07:45:23;21.90;95.40
7016;DHT22;3548;48.402;9.990;2023-06-24T07:47:50;22.00;95.60
7016;DHT22;3548;48.402;9.990;2023-06-24T07:50:16;22.20;95.50
7016;DHT22;3548;48.402;9.990;2023-06-24T07:52:41;22.40;95.30
7016;DHT22;3548;48.402;9.990;2023-06-24T07:55:07;22.50;94.90
7016;DHT22;3548;48.402;9.990;2023-06-24T07:57:33;22.70;95.10
7016;DHT22;3548;48.402;9.990;2023-06-24T07:59:58;22.80;93.80
7016;DHT22;3548;48.402;9.990;2023-06-24T08:02:24;22.60;93.90
7016;DHT22;3548;48.402;9.990;2023-06-24T08:04:50;22.70;93.90
7016;DHT22;3548;48.402;9.990;2023-06-24T08:07:16;22.50;93.80
7016;DHT22;3548;48.402;9.990;2023-06-24T08:09:41;22.40;94.00
7016;DHT22;3548;48.402;9.990;2023-06-24T08:12:07;22.40;94.00
7016;DHT22;3548;48.402;9.990;2023-06-24T08:14:33;22.50;94.10
7016;DHT22;3548;48.402;9.990;2023-06-24T08:16:59;22.70;94.00
7016;DHT22;3548;48.402;9.990;2023-06-24T08:19:24;23.00;94.00
7016;DHT22;3548;48.402;9.990;2023-06-24T08:21:50;23.10;93.20
7016;DHT22;3548;48.402;9.990;2023-06-24T08:24:15;23.10;93.20
7016;DHT22;3548;48.402;9.990;2023-06-24T08:26:41;23.10;93.20
7016;DHT22;3548;48.402;9.990;2023-06-24T08:29:06;23.00;93.40
7016;DHT22;3548;48.402;9.990;2023-06-24T08:31:32;22.90;93.10
7016;DHT22;3548;48.402;9.990;2023-06-24T08:34:01;22.80;93.10
7016;DHT22;3548;48.402;9.990;2023-06-24T08:36:32;22.80;93.10
7016;DHT22;3548;48.402;9.990;2023-06-24T08:38:57;22.80;92.60
7016;DHT22;3548;48.402;9.990;2023-06-24T08:41:23;22.90;92.50
7016;DHT22;3548;48.402;9.990;2023-06-24T08:43:53;23.10;92.80
7016;DHT22;3548;48.402;9.990;2023-06-24T08:46:19;23.40;92.20
7016;DHT22;3548;48.402;9.990;2023-06-24T08:48:45;23.60;92.30
7016;DHT22;3548;48.402;9.990;2023-06-24T08:51:15;23.90;91.90
7016;DHT22;3548;48.402;9.990;2023-06-24T08:53:43;24.30;91.30
7016;DHT22;3548;48.402;9.990;2023-06-24T08:56:11;24.40;91.30
7016;DHT22;3548;48.402;9.990;2023-06-24T08:58:40;24.60;91.00
7016;DHT22;3548;48.402;9.990;2023-06-24T09:01:06;24.60;90.40
7016;DHT22;3548;48.402;9.990;2023-06-24T09:03:31;24.50;89.80
7016;DHT22;3548;48.402;9.990;2023-06-24T09:05:57;24.30;90.10
7016;DHT22;3548;48.402;9.990;2023-06-24T09:08:22;24.00;90.40
7016;DHT22;3548;48.402;9.990;2023-06-24T09:10:53;24.10;90.40
7016;DHT22;3548;48.402;9.990;2023-06-24T09:13:33;24.20;89.30
7016;DHT22;3548;48.402;9.990;2023-06-24T09:16:00;24.30;88.90
7016;DHT22;3548;48.402;9.990;2023-06-24T09:18:33;24.30;89.10
7016;DHT22;3548;48.402;9.990;2023-06-24T09:20:59;24.50;88.70
7016;DHT22;3548;48.402;9.990;2023-06-24T09:23:26;24.40;87.20
7016;DHT22;3548;48.402;9.990;2023-06-24T09:25:57;24.40;88.30
7016;DHT22;3548;48.402;9.990;2023-06-24T09:28:27;24.30;86.60
7016;DHT22;3548;48.402;9.990;2023-06-24T09:31:09;24.00;87.90
7016;DHT22;3548;48.402;9.990;2023-06-24T09:33:35;24.10;85.40
7016;DHT22;3548;48.402;9.990;2023-06-24T09:36:03;24.00;85.90
7016;DHT22;3548;48.402;9.990;2023-06-24T09:38:37;23.90;87.50
7016;DHT22;3548;48.402;9.990;2023-06-24T09:41:04;23.90;88.40
7016;DHT22;3548;48.402;9.990;2023-06-24T09:43:40;24.00;88.00
7016;DHT22;3548;48.402;9.990;2023-06-24T09:46:08;24.00;88.20
7016;DHT22;3548;48.402;9.990;2023-06-24T09:48:34;23.70;88.10
7016;DHT22;3548;48.402;9.990;2023-06-24T09:51:01;23.60;89.10
7016;DHT22;3548;48.402;9.990;2023-06-24T09:53:34;23.80;89.10
7016;DHT22;3548;48.402;9.990;2023-06-24T09:56:01;23.90;87.80
7016;DHT22;3548;48.402;9.990;2023-06-24T09:58:34;24.10;86.40
7016;DHT22;3548;48.402;9.990;2023-06-24T10:01:05;24.30;84.20
7016;DHT22;3548;48.402;9.990;2023-06-24T10:03:33;24.50;84.00
7016;DHT22;3548;48.402;9.990;2023-06-24T10:06:01;24.60;82.70
7016;DHT22;3548;48.402;9.990;2023-06-24T10:08:28;24.70;82.20
7016;DHT22;3548;48.402;9.990;2023-06-24T10:10:54;24.60;81.90
7016;DHT22;3548;48.402;9.990;2023-06-24T10:13:19;24.50;82.70
7016;DHT22;3548;48.402;9.990;2023-06-24T10:15:46;24.60;83.80
7016;DHT22;3548;48.402;9.990;2023-06-24T10:20:56;25.00;82.80
7016;DHT22;3548;48.402;9.990;2023-06-24T10:23:21;25.40;81.10
7016;DHT22;3548;48.402;9.990;2023-06-24T10:25:48;25.70;78.70
7016;DHT22;3548;48.402;9.990;2023-06-24T10:28:13;25.70;76.90
7016;DHT22;3548;48.402;9.990;2023-06-24T10:30:39;25.70;75.30
7016;DHT22;3548;48.402;9.990;2023-06-24T10:33:09;25.70;75.80
7016;DHT22;3548;48.402;9.990;2023-06-24T10:35:41;25.80;75.00
7016;DHT22;3548;48.402;9.990;2023-06-24T10:38:10;25.90;73.50
7016;DHT22;3548;48.402;9.990;2023-06-24T10:40:36;25.80;73.50
7016;DHT22;3548;48.402;9.990;2023-06-24T10:45:49;25.20;72.20
7016;DHT22;3548;48.402;9.990;2023-06-24T10:48:15;25.20;73.90
7016;DHT22;3548;48.402;9.990;2023-06-24T10:50:41;25.30;74.20
7016;DHT22;3548;48.402;9.990;2023-06-24T10:53:08;25.50;73.40
7016;DHT22;3548;48.402;9.990;2023-06-24T10:55:35;25.70;72.60
7016;DHT22;3548;48.402;9.990;2023-06-24T10:58:12;25.70;71.20
7016;DHT22;3548;48.402;9.990;2023-06-24T11:00:39;25.60;71.40
7016;DHT22;3548;48.402;9.990;2023-06-24T11:03:12;25.70;70.50
7016;DHT22;3548;48.402;9.990;2023-06-24T11:05:41;25.60;70.50
7016;DHT22;3548;48.402;9.990;2023-06-24T11:08:08;25.70;71.00
7016;DHT22;3548;48.402;9.990;2023-06-24T11:10:48;25.60;68.70
7016;DHT22;3548;48.402;9.990;2023-06-24T11:13:14;25.70;69.00
7016;DHT22;3548;48.402;9.990;2023-06-24T11:15:40;25.70;68.60
7016;DHT22;3548;48.402;9.990;2023-06-24T11:18:10;25.50;71.20
7016;DHT22;3548;48.402;9.990;2023-06-24T11:20:37;25.30;71.80
7016;DHT22;3548;48.402;9.990;2023-06-24T11:23:05;25.10;70.90
7016;DHT22;3548;48.402;9.990;2023-06-24T11:25:31;25.00;70.70
7016;DHT22;3548;48.402;9.990;2023-06-24T11:27:57;25.00;68.80
7016;DHT22;3548;48.402;9.990;2023-06-24T11:30:22;24.90;68.20
7016;DHT22;3548;48.402;9.990;2023-06-24T11:32:48;25.00;67.90
7016;DHT22;3548;48.402;9.990;2023-06-24T11:35:15;25.10;65.70
7016;DHT22;3548;48.402;9.990;2023-06-24T11:37:43;25.20;64.70
7016;DHT22;3548;48.402;9.990;2023-06-24T11:40:09;25.40;67.00
7016;DHT22;3548;48.402;9.990;2023-06-24T11:42:39;25.50;67.20
7016;DHT22;3548;48.402;9.990;2023-06-24T11:45:07;25.70;67.50
7016;DHT22;3548;48.402;9.990;2023-06-24T11:47:34;25.80;66.50
7016;DHT22;3548;48.402;9.990;2023-06-24T11:50:00;25.70;65.80
7016;DHT22;3548;48.402;9.990;2023-06-24T11:55:01;25.80;65.60
7016;DHT22;3548;48.402;9.990;2023-06-24T12:00:26;25.80;66.70
7016;DHT22;3548;48.402;9.990;2023-06-24T12:02:57;25.80;65.80
7016;DHT22;3548;48.402;9.990;2023-06-24T12:05:32;25.90;64.10
7016;DHT22;3548;48.402;9.990;2023-06-24T12:10:25;25.40;66.10
7016;DHT22;3548;48.402;9.990;2023-06-24T12:12:51;25.50;66.40
7016;DHT22;3548;48.402;9.990;2023-06-24T12:15:16;25.30;64.60
7016;DHT22;3548;48.402;9.990;2023-06-24T12:17:42;25.30;64.40
7016;DHT22;3548;48.402;9.990;2023-06-24T12:20:08;25.30;64.80
7016;DHT22;3548;48.402;9.990;2023-06-24T12:22:35;25.30;62.20
7016;DHT22;3548;48.402;9.990;2023-06-24T12:25:00;25.30;62.90
7016;DHT22;3548;48.402;9.990;2023-06-24T12:27:26;25.60;62.50
7016;DHT22;3548;48.402;9.990;2023-06-24T12:29:51;25.90;62.60
7016;DHT22;3548;48.402;9.990;2023-06-24T12:32:17;26.20;62.50
7016;DHT22;3548;48.402;9.990;2023-06-24T12:34:42;26.50;62.20
7016;DHT22;3548;48.402;9.990;2023-06-24T12:37:08;26.50;61.40
7016;DHT22;3548;48.402;9.990;2023-06-24T12:39:33;26.50;60.70
7016;DHT22;3548;48.402;9.990;2023-06-24T12:41:59;26.50;59.70
7016;DHT22;3548;48.402;9.990;2023-06-24T12:44:24;26.60;60.10
7016;DHT22;3548;48.402;9.990;2023-06-24T12:46:50;26.60;62.20
7016;DHT22;3548;48.402;9.990;2023-06-24T12:49:15;26.60;62.60
7016;DHT22;3548;48.402;9.990;2023-06-24T12:51:41;26.60;61.10
7016;DHT22;3548;48.402;9.990;2023-06-24T12:54:06;26.60;60.60
7016;DHT22;3548;48.402;9.990;2023-06-24T12:56:32;26.50;61.70
7016;DHT22;3548;48.402;9.990;2023-06-24T12:58:57;26.50;60.10
7016;DHT22;3548;48.402;9.990;2023-06-24T13:01:23;26.50;60.70
7016;DHT22;3548;48.402;9.990;2023-06-24T13:03:48;26.70;61.30
7016;DHT22;3548;48.402;9.990;2023-06-24T13:06:14;26.90;60.80
7016;DHT22;3548;48.402;9.990;2023-06-24T13:08:40;26.90;60.10
7016;DHT22;3548;48.402;9.990;2023-06-24T13:11:05;27.00;60.70
7016;DHT22;3548;48.402;9.990;2023-06-24T13:13:31;26.80;61.10
7016;DHT22;3548;48.402;9.990;2023-06-24T13:15:56;26.70;60.20
7016;DHT22;3548;48.402;9.990;2023-06-24T13:18:22;26.60;59.80
7016;DHT22;3548;48.402;9.990;2023-06-24T13:20:47;26.60;60.60
7016;DHT22;3548;48.402;9.990;2023-06-24T13:23:13;26.70;59.80
7016;DHT22;3548;48.402;9.990;2023-06-24T13:25:38;26.70;59.60
7016;DHT22;3548;48.402;9.990;2023-06-24T13:28:05;26.80;59.80
7016;DHT22;3548;48.402;9.990;2023-06-24T13:30:31;26.90;59.80
7016;DHT22;3548;48.402;9.990;2023-06-24T13:32:56;27.10;59.00
7016;DHT22;3548;48.402;9.990;2023-06-24T13:35:22;27.20;58.90
7016;DHT22;3548;48.402;9.990;2023-06-24T13:37:48;27.30;59.50
7016;DHT22;3548;48.402;9.990;2023-06-24T13:40:13;27.30;59.90
7016;DHT22;3548;48.402;9.990;2023-06-24T13:42:39;27.00;59.70
7016;DHT22;3548;48.402;9.990;2023-06-24T13:45:04;26.80;59.70
7016;DHT22;3548;48.402;9.990;2023-06-24T13:47:30;26.60;60.10
7016;DHT22;3548;48.402;9.990;2023-06-24T13:49:56;26.60;60.40
7016;DHT22;3548;48.402;9.990;2023-06-24T13:52:22;26.60;59.70
7016;DHT22;3548;48.402;9.990;2023-06-24T13:54:48;26.70;59.40
7016;DHT22;3548;48.402;9.990;2023-06-24T13:57:13;26.80;58.50
7016;DHT22;3548;48.402;9.990;2023-06-24T13:59:39;26.90;58.90
7016;DHT22;3548;48.402;9.990;2023-06-24T14:02:05;27.00;58.80
7016;DHT22;3548;48.402;9.990;2023-06-24T14:04:30;27.00;58.20
7016;DHT22;3548;48.402;9.990;2023-06-24T14:06:56;26.90;58.20
7016;DHT22;3548;48.402;9.990;2023-06-24T14:09:21;26.90;58.50
7016;DHT22;3548;48.402;9.990;2023-06-24T14:11:47;27.00;59.40
7016;DHT22;3548;48.402;9.990;2023-06-24T14:14:13;27.10;59.50
7016;DHT22;3548;48.402;9.990;2023-06-24T14:16:38;27.20;58.90
7016;DHT22;3548;48.402;9.990;2023-06-24T14:19:04;27.40;59.00
7016;DHT22;3548;48.402;9.990;2023-06-24T14:21:29;27.60;58.00
7016;DHT22;3548;48.402;9.990;2023-06-24T14:23:57;27.60;58.70
7016;DHT22;3548;48.402;9.990;2023-06-24T14:26:22;27.40;58.20
7016;DHT22;3548;48.402;9.990;2023-06-24T14:28:48;27.10;59.40
7016;DHT22;3548;48.402;9.990;2023-06-24T14:31:13;27.00;59.10
7016;DHT22;3548;48.402;9.990;2023-06-24T14:33:39;26.80;59.60
7016;DHT22;3548;48.402;9.990;2023-06-24T14:36:04;26.80;60.30
7016;DHT22;3548;48.402;9.990;2023-06-24T14:38:30;26.90;59.70
7016;DHT22;3548;48.402;9.990;2023-06-24T14:40:56;27.00;59.80
7016;DHT22;3548;48.402;9.990;2023-06-24T14:43:22;26.90;59.10
7016;DHT22;3548;48.402;9.990;2023-06-24T14:45:47;27.00;59.20
7016;DHT22;3548;48.402;9.990;2023-06-24T14:48:13;27.10;59.50
7016;DHT22;3548;48.402;9.990;2023-06-24T14:50:38;27.00;58.80
7016;DHT22;3548;48.402;9.990;2023-06-24T14:53:04;27.10;58.70
7016;DHT22;3548;48.402;9.990;2023-06-24T14:55:30;27.20;58.50
7016;DHT22;3548;48.402;9.990;2023-06-24T14:57:56;27.10;58.60
7016;DHT22;3548;48.402;9.990;2023-06-24T15:00:21;27.00;58.90
7016;DHT22;3548;48.402;9.990;2023-06-24T15:02:47;27.00;60.00
7016;DHT22;3548;48.402;9.990;2023-06-24T15:05:12;27.10;58.60
7016;DHT22;3548;48.402;9.990;2023-06-24T15:07:38;27.00;57.50
7016;DHT22;3548;48.402;9.990;2023-06-24T15:10:04;27.00;57.20
7016;DHT22;3548;48.402;9.990;2023-06-24T15:12:30;27.00;57.50
7016;DHT22;3548;48.402;9.990;2023-06-24T15:14:56;27.10;58.50
7016;DHT22;3548;48.402;9.990;2023-06-24T15:17:21;27.00;58.60
7016;DHT22;3548;48.402;9.990;2023-06-24T15:19:47;26.90;58.50
7016;DHT22;3548;48.402;9.990;2023-06-24T15:22:12;26.80;58.60
7016;DHT22;3548;48.402;9.990;2023-06-24T15:24:38;26.90;58.50
7016;DHT22;3548;48.402;9.990;2023-06-24T15:27:04;26.90;58.70
7016;DHT22;3548;48.402;9.990;2023-06-24T15:29:29;27.00;58.70
7016;DHT22;3548;48.402;9.990;2023-06-24T15:31:55;27.10;58.50
7016;DHT22;3548;48.402;9.990;2023-06-24T15:34:20;27.10;57.90
7016;DHT22;3548;48.402;9.990;2023-06-24T15:36:46;26.90;57.80
7016;DHT22;3548;48.402;9.990;2023-06-24T15:39:12;26.80;58.40
7016;DHT22;3548;48.402;9.990;2023-06-24T15:41:38;26.70;58.40
7016;DHT22;3548;48.402;9.990;2023-06-24T15:44:06;26.60;58.60
7016;DHT22;3548;48.402;9.990;2023-06-24T15:46:32;26.60;58.60
7016;DHT22;3548;48.402;9.990;2023-06-24T15:48:57;26.70;58.80
7016;DHT22;3548;48.402;9.990;2023-06-24T15:51:23;26.90;58.80
7016;DHT22;3548;48.402;9.990;2023-06-24T15:53:48;27.10;58.50
7016;DHT22;3548;48.402;9.990;2023-06-24T15:56:14;27.00;58.50
7016;DHT22;3548;48.402;9.990;2023-06-24T15:58:40;27.00;58.50
7016;DHT22;3548;48.402;9.990;2023-06-24T16:01:05;27.10;57.80
7016;DHT22;3548;48.402;9.990;2023-06-24T16:03:31;27.00;58.10
7016;DHT22;3548;48.402;9.990;2023-06-24T16:05:56;27.00;58.10
7016;DHT22;3548;48.402;9.990;2023-06-24T16:08:22;27.00;58.10
7016;DHT22;3548;48.402;9.990;2023-06-24T16:10:47;27.00;58.20
7016;DHT22;3548;48.402;9.990;2023-06-24T16:13:13;27.00;57.60
7016;DHT22;3548;48.402;9.990;2023-06-24T16:15:38;27.00;57.70
7016;DHT22;3548;48.402;9.990;2023-06-24T16:18:04;26.90;57.90
7016;DHT22;3548;48.402;9.990;2023-06-24T16:20:30;27.00;57.90